createdAt,value
2019-02-20T07:36:11.567Z,19.97
2019-02-20T07:38:43.140Z,20.34
2019-02-20T07:41:14.503Z,20.65
2019-02-20T07:43:44.907Z,20.93
2019-02-20T07:46:15.292Z,21.16
2019-02-20T07:48:45.721Z,21.39
2019-02-20T07:51:16.272Z,21.56
2019-02-20T07:53:46.607Z,21.72
2019-02-20T07:56:17.155Z,21.86
2019-02-20T07:58:47.684Z,21.99
2019-02-20T08:03:29.765Z,20.43
2019-02-20T08:06:03.339Z,13.71
2019-02-20T08:08:33.885Z,11.16
2019-02-20T08:11:05.850Z,9.92
2019-02-20T08:13:39.313Z,9.06
2019-02-20T08:16:11.321Z,8.79
2019-02-20T08:18:44.037Z,8.92
2019-02-20T08:21:15.674Z,8.78
2019-02-20T08:23:46.187Z,8.67
2019-02-20T08:26:16.602Z,8.54
2019-02-20T08:28:47.061Z,8.34
2019-02-20T08:31:17.435Z,8.30
2019-02-20T08:33:48.017Z,8.29
2019-02-20T08:36:18.369Z,8.22
2019-02-20T08:38:48.947Z,7.97
2019-02-20T08:41:19.447Z,7.94
2019-02-20T08:43:49.940Z,7.95
2019-02-20T08:46:20.361Z,8.07
2019-02-20T08:48:50.891Z,8.04
2019-02-20T08:51:21.377Z,7.96
2019-02-20T08:53:51.843Z,7.82
2019-02-20T08:56:22.269Z,7.79
2019-02-20T08:58:53.216Z,7.72
2019-02-20T09:01:24.009Z,7.74
2019-02-20T09:03:54.473Z,7.89
2019-02-20T09:06:27.907Z,8.02
2019-02-20T09:08:58.420Z,8.28
2019-02-20T09:11:28.755Z,8.55
2019-02-20T09:13:59.122Z,8.51
2019-02-20T09:16:29.617Z,8.95
2019-02-20T09:19:00.003Z,9.22
2019-02-20T09:21:30.357Z,9.04
2019-02-20T09:24:00.720Z,9.04
2019-02-20T09:26:31.073Z,9.09
2019-02-20T09:29:01.526Z,9.22
2019-02-20T09:31:32.009Z,9.10
2019-02-20T09:34:02.667Z,8.93
2019-02-20T09:36:32.990Z,8.91
2019-02-20T09:39:22.960Z,9.01
2019-02-20T09:41:53.365Z,9.13
2019-02-20T09:44:24.181Z,9.00
2019-02-20T09:46:56.058Z,9.00
2019-02-20T09:49:26.416Z,8.85
2019-02-20T09:51:56.829Z,8.99
2019-02-20T09:54:27.351Z,9.12
2019-02-20T09:56:57.782Z,9.18
2019-02-20T09:59:28.165Z,9.26
2019-02-20T10:01:58.496Z,9.49
2019-02-20T10:04:28.948Z,9.42
2019-02-20T10:06:59.337Z,9.25
2019-02-20T10:09:29.713Z,9.28
2019-02-20T10:12:00.087Z,9.53
2019-02-20T10:14:30.628Z,9.60
2019-02-20T10:17:00.967Z,9.34
2019-02-20T10:19:31.340Z,9.52
2019-02-20T10:22:01.742Z,9.46
2019-02-20T10:24:32.191Z,9.46
2019-02-20T10:27:02.678Z,9.76
2019-02-20T10:29:33.171Z,9.72
2019-02-20T10:32:03.882Z,9.82
2019-02-20T10:34:34.884Z,9.87
2019-02-20T10:37:05.386Z,9.98
2019-02-20T10:39:35.930Z,10.06
2019-02-20T10:42:06.341Z,10.15
2019-02-20T10:44:36.801Z,10.23
2019-02-20T10:47:08.203Z,10.12
2019-02-20T10:49:38.860Z,10.24
2019-02-20T10:52:09.223Z,10.32
2019-02-20T10:54:39.623Z,10.20
2019-02-20T10:57:10.056Z,10.22
2019-02-20T10:59:40.514Z,10.19
2019-02-20T11:02:10.933Z,10.27
2019-02-20T11:04:41.384Z,10.19
2019-02-20T11:07:11.740Z,10.06
2019-02-20T11:09:42.201Z,10.03
2019-02-20T11:12:13.635Z,10.10
2019-02-20T11:14:44.083Z,10.05
2019-02-20T11:17:14.508Z,10.14
2019-02-20T11:19:44.892Z,10.12
2019-02-20T11:22:15.427Z,10.17
2019-02-20T11:24:45.809Z,10.06
2019-02-20T11:27:16.254Z,10.09
2019-02-20T11:29:46.633Z,9.98
2019-02-20T11:32:16.980Z,10.06
2019-02-20T11:34:47.374Z,9.86
2019-02-20T11:37:17.791Z,9.82
2019-02-20T11:39:48.168Z,9.86
2019-02-20T11:42:18.507Z,9.76
2019-02-20T11:44:48.919Z,9.99
2019-02-20T11:47:19.323Z,10.11
2019-02-20T11:49:49.702Z,10.35
2019-02-20T11:52:20.050Z,10.15
2019-02-20T11:54:50.430Z,10.22
2019-02-20T11:57:20.854Z,10.16
2019-02-20T11:59:51.315Z,10.24
2019-02-20T12:02:21.653Z,10.22
2019-02-20T12:04:52.038Z,10.08
2019-02-20T12:07:22.374Z,10.23
2019-02-20T12:09:54.451Z,10.18
2019-02-20T12:12:25.978Z,10.19
2019-02-20T12:14:56.358Z,10.45
2019-02-20T12:17:26.700Z,10.16
2019-02-20T12:19:57.087Z,10.12
2019-02-20T12:22:27.966Z,10.07
2019-02-20T12:24:59.355Z,10.00
2019-02-20T12:27:29.763Z,10.14
2019-02-20T12:30:00.269Z,10.17
2019-02-20T12:32:31.032Z,10.19
2019-02-20T12:35:02.494Z,10.11
2019-02-20T12:37:32.907Z,10.22
2019-02-20T12:40:05.057Z,10.26
2019-02-20T12:42:35.665Z,10.16
2019-02-20T12:45:07.588Z,10.11
2019-02-20T12:47:37.935Z,10.02
2019-02-20T12:50:11.708Z,10.06
2019-02-20T12:52:42.062Z,9.99
2019-02-20T12:55:12.513Z,9.97
2019-02-20T12:57:43.008Z,9.88
2019-02-20T13:00:18.266Z,9.84
2019-02-20T13:02:48.666Z,9.96
2019-02-20T13:05:19.268Z,10.02
2019-02-20T13:07:49.681Z,10.02
2019-02-20T13:10:20.073Z,10.08
2019-02-20T13:12:50.588Z,9.97
2019-02-20T13:15:21.100Z,9.92
2019-02-20T13:17:51.571Z,9.89
2019-02-20T13:20:22.289Z,9.91
2019-02-20T13:23:02.698Z,10.07
2019-02-20T13:25:35.692Z,10.09
2019-02-20T13:28:06.021Z,10.06
2019-02-20T13:30:36.485Z,10.18
2019-02-20T13:33:07.187Z,10.34
2019-02-20T13:35:37.644Z,10.40
2019-02-20T13:38:08.214Z,10.46
2019-02-20T13:40:38.961Z,10.55
2019-02-20T13:43:09.313Z,10.57
2019-02-20T13:45:39.703Z,10.37
2019-02-20T13:48:10.186Z,10.15
2019-02-20T13:50:40.639Z,10.11
2019-02-20T13:53:11.236Z,10.14
2019-02-20T13:55:41.664Z,10.04
2019-02-20T13:58:12.086Z,9.87
2019-02-20T14:00:42.455Z,9.66
2019-02-20T14:03:13.287Z,9.53
2019-02-20T14:05:43.834Z,9.51
2019-02-20T14:08:14.746Z,9.61
2019-02-20T14:10:45.209Z,9.64
2019-02-20T14:13:15.619Z,9.61
2019-02-20T14:15:46.341Z,9.59
2019-02-20T14:18:17.012Z,9.61
2019-02-20T14:20:47.383Z,9.76
2019-02-20T14:23:17.995Z,9.78
2019-02-20T14:25:48.433Z,9.81
2019-02-20T14:28:18.832Z,9.77
2019-02-20T14:30:49.524Z,9.82
2019-02-20T14:33:19.873Z,9.72
2019-02-20T14:35:50.657Z,9.75
2019-02-20T14:38:21.059Z,9.70
2019-02-20T14:40:51.436Z,9.88
2019-02-20T14:43:22.923Z,9.95
2019-02-20T14:45:53.355Z,9.75
2019-02-20T14:48:23.765Z,9.81
2019-02-20T14:50:54.224Z,9.72
2019-02-20T14:53:24.561Z,9.85
2019-02-20T14:55:54.949Z,9.77
2019-02-20T14:58:27.385Z,9.73
2019-02-20T15:00:57.889Z,9.73
2019-02-20T15:03:28.232Z,9.69
2019-02-20T15:05:58.885Z,9.63
2019-02-20T15:08:29.286Z,9.52
2019-02-20T15:10:59.745Z,9.49
2019-02-20T15:13:30.145Z,9.40
2019-02-20T15:16:00.598Z,9.31
2019-02-20T15:18:31.009Z,9.27
2019-02-20T15:21:02.683Z,9.24
2019-02-20T15:23:33.095Z,9.26
2019-02-20T15:26:03.750Z,9.24
2019-02-20T15:28:34.297Z,9.18
2019-02-20T15:31:04.752Z,9.16
2019-02-20T15:33:35.455Z,9.09
2019-02-20T15:36:05.841Z,9.01
2019-02-20T15:38:36.260Z,8.95
2019-02-20T15:41:06.635Z,8.91
2019-02-20T15:43:37.060Z,8.86
2019-02-20T15:46:07.443Z,8.82
2019-02-20T15:48:37.858Z,8.76
2019-02-20T15:51:08.310Z,8.74
2019-02-20T15:53:38.660Z,8.70
2019-02-20T15:56:09.041Z,8.65
2019-02-20T15:58:39.545Z,8.59
2019-02-20T16:01:11.554Z,8.54
2019-02-20T16:03:42.240Z,8.49
2019-02-20T16:06:12.622Z,8.42
2019-02-20T16:08:43.363Z,8.36
2019-02-20T16:11:13.763Z,8.31
2019-02-20T16:13:45.221Z,8.26
2019-02-20T16:16:15.674Z,8.19
2019-02-20T16:18:46.088Z,8.17
2019-02-20T16:21:16.528Z,8.16
2019-02-20T16:24:20.955Z,8.12
2019-02-20T16:26:51.910Z,8.13
2019-02-20T16:29:23.340Z,8.17
2019-02-20T16:31:53.878Z,8.19
2019-02-20T16:34:25.533Z,8.19
2019-02-20T16:36:58.009Z,8.20
2019-02-20T16:39:28.311Z,8.24
2019-02-20T16:41:58.734Z,8.25
2019-02-20T16:44:29.517Z,8.24
2019-02-20T16:46:59.975Z,8.25
2019-02-20T16:49:30.332Z,8.25
2019-02-20T16:52:00.745Z,8.24
2019-02-20T16:54:31.175Z,8.24
2019-02-20T16:57:01.653Z,8.26
2019-02-20T16:59:32.083Z,8.22
2019-02-20T17:02:02.540Z,8.25
2019-02-20T17:04:32.967Z,8.22
2019-02-20T17:07:16.305Z,8.21
2019-02-20T17:09:52.088Z,8.21
2019-02-20T17:12:22.798Z,8.20
2019-02-20T17:14:53.407Z,8.19
2019-02-20T17:17:25.265Z,8.17
2019-02-20T17:19:55.748Z,8.17
2019-02-20T17:22:26.465Z,8.16
2019-02-20T17:24:56.890Z,8.15
2019-02-20T17:27:27.567Z,8.12
2019-02-20T17:29:58.006Z,8.06
2019-02-20T17:32:28.396Z,8.04
2019-02-20T17:34:58.818Z,8.02
2019-02-20T17:37:29.384Z,7.99
2019-02-20T17:39:59.809Z,7.96
2019-02-20T17:42:30.326Z,7.94
2019-02-20T17:45:00.752Z,7.91
2019-02-20T17:47:31.270Z,7.89
2019-02-20T17:50:02.101Z,7.91
2019-02-20T17:52:32.632Z,7.93
2019-02-20T17:55:03.176Z,7.91
2019-02-20T17:57:33.780Z,7.91
2019-02-20T18:00:05.501Z,7.88
2019-02-20T18:02:36.658Z,7.87
2019-02-20T18:05:07.942Z,7.87
2019-02-20T18:07:38.496Z,7.85
2019-02-20T18:10:10.240Z,7.79
2019-02-20T18:12:40.854Z,7.77
2019-02-20T18:15:12.981Z,7.72
2019-02-20T18:17:43.443Z,7.72
2019-02-20T18:20:13.854Z,7.70
2019-02-20T18:22:44.643Z,7.70
2019-02-20T18:25:15.113Z,7.70
2019-02-20T18:27:45.654Z,7.69
2019-02-20T18:30:16.521Z,7.67
2019-02-20T18:32:47.041Z,7.62
2019-02-20T18:35:19.108Z,7.62
2019-02-20T18:37:49.726Z,7.59
2019-02-20T18:40:20.145Z,7.58
2019-02-20T18:42:50.718Z,7.55
2019-02-20T18:45:21.246Z,7.53
2019-02-20T18:47:51.682Z,7.53
2019-02-20T18:50:22.121Z,7.54
2019-02-20T18:52:52.505Z,7.58
2019-02-20T18:55:23.188Z,7.57
2019-02-20T18:57:53.642Z,7.56
2019-02-20T19:00:24.090Z,7.54
2019-02-20T19:02:54.695Z,7.54
2019-02-20T19:05:25.107Z,7.54
2019-02-20T19:07:55.688Z,7.54
2019-02-20T19:10:29.498Z,7.53
2019-02-20T19:13:27.581Z,7.53
2019-02-20T19:16:18.574Z,7.52
2019-02-20T19:19:02.589Z,7.53
2019-02-20T19:21:55.853Z,7.50
2019-02-20T19:24:35.182Z,7.50
2019-02-20T19:27:33.209Z,7.45
2019-02-20T19:30:22.056Z,7.46
2019-02-20T19:33:13.717Z,7.45
2019-02-20T19:36:15.618Z,7.43
2019-02-20T19:39:02.691Z,7.42
2019-02-20T19:41:47.726Z,7.41
2019-02-20T19:44:24.126Z,7.39
2019-02-20T19:47:19.308Z,7.40
2019-02-20T19:50:02.011Z,7.39
2019-02-20T19:52:49.867Z,7.38
2019-02-20T19:55:55.830Z,7.37
2019-02-20T19:58:41.202Z,7.33
2019-02-20T20:01:23.980Z,7.33
2019-02-20T20:04:03.549Z,7.32
2019-02-20T20:06:45.858Z,7.32
2019-02-20T20:09:31.515Z,7.27
2019-02-20T20:12:14.092Z,7.25
2019-02-20T20:15:07.395Z,7.25
2019-02-20T20:17:51.859Z,7.24
2019-02-20T20:20:28.405Z,7.24
2019-02-20T20:23:10.941Z,7.27
2019-02-20T20:26:13.703Z,7.24
2019-02-20T20:29:16.209Z,7.29
2019-02-20T20:31:58.776Z,7.27
2019-02-20T20:34:53.387Z,7.27
2019-02-20T20:37:30.223Z,7.28
2019-02-20T20:40:13.108Z,7.31
2019-02-20T20:42:52.708Z,7.28
2019-02-20T20:45:53.944Z,7.26
2019-02-20T20:48:44.370Z,7.24
2019-02-20T20:51:34.350Z,7.24
2019-02-20T20:54:29.071Z,7.24
2019-02-20T20:59:51.509Z,7.23
2019-02-20T21:02:25.197Z,7.19
2019-02-20T21:05:01.406Z,7.23
2019-02-20T21:07:41.703Z,7.24
2019-02-20T21:10:33.509Z,7.26
2019-02-20T21:13:28.559Z,7.29
2019-02-20T21:16:17.308Z,7.30
2019-02-20T21:19:00.947Z,7.30
2019-02-20T21:21:59.140Z,7.30
2019-02-20T21:24:35.557Z,7.29
2019-02-20T21:27:28.889Z,7.31
2019-02-20T21:30:02.595Z,7.32
2019-02-20T21:33:09.774Z,7.31
2019-02-20T21:36:11.858Z,7.29
2019-02-20T21:39:13.107Z,7.31
2019-02-20T21:42:04.511Z,7.30
2019-02-20T21:44:46.399Z,7.27
2019-02-20T21:47:31.917Z,7.28
2019-02-20T21:50:22.463Z,7.28
2019-02-20T21:53:12.489Z,7.32
2019-02-20T21:56:06.988Z,7.33
2019-02-20T21:58:43.277Z,7.31
2019-02-20T22:01:38.725Z,7.31
2019-02-20T22:04:33.834Z,7.30
2019-02-20T22:07:07.572Z,7.29
2019-02-20T22:09:57.374Z,7.28
2019-02-20T22:12:23.025Z,7.26
2019-02-20T22:14:59.161Z,7.28
2019-02-20T22:17:58.359Z,7.27
2019-02-20T22:20:43.781Z,7.27
2019-02-20T22:23:26.208Z,7.25
2019-02-20T22:26:10.185Z,7.25
2019-02-20T22:28:58.928Z,7.25
2019-02-20T22:32:00.607Z,7.24
2019-02-20T22:35:37.868Z,7.22
2019-02-20T22:38:38.979Z,7.24
2019-02-20T22:41:32.289Z,7.22
2019-02-20T22:44:31.418Z,7.22
2019-02-20T22:47:20.360Z,7.18
2019-02-20T22:50:29.230Z,7.17
2019-02-20T22:53:26.327Z,7.15
2019-02-20T22:56:02.697Z,7.16
2019-02-20T22:58:57.769Z,7.18
2019-02-20T23:01:34.415Z,7.18
2019-02-20T23:04:13.912Z,7.17
2019-02-20T23:06:47.617Z,7.19
2019-02-20T23:09:52.996Z,7.19
2019-02-20T23:12:49.131Z,7.21
2019-02-20T23:15:19.650Z,7.20
2019-02-20T23:17:50.087Z,7.20
2019-02-20T23:20:20.454Z,7.20
2019-02-20T23:22:50.889Z,7.21
2019-02-20T23:25:21.257Z,7.19
2019-02-20T23:27:51.755Z,7.19
2019-02-20T23:30:22.279Z,7.21
2019-02-20T23:32:52.717Z,7.20
2019-02-20T23:35:23.226Z,7.21
2019-02-20T23:37:53.772Z,7.21
2019-02-20T23:40:24.437Z,7.22
2019-02-20T23:42:54.767Z,7.19
2019-02-20T23:45:25.234Z,7.18
2019-02-20T23:47:55.635Z,7.17
2019-02-20T23:50:26.084Z,7.16
2019-02-20T23:52:56.622Z,7.16
2019-02-20T23:55:26.972Z,7.15
2019-02-20T23:57:57.505Z,7.13
